sensor_id;sensor_type;location;lat;lon;timestamp;P1;durP1;ratioP1;P2;durP2;ratioP2
54388;SDS011;40975;50.390;8.640;2022-08-23T00:00:40;2.47;;;1.35;;
54388;SDS011;40975;50.390;8.640;2022-08-23T00:03:05;2.05;;;1.40;;
54388;SDS011;40975;50.390;8.640;2022-08-23T00:05:31;1.70;;;1.40;;
54388;SDS011;40975;50.390;8.640;2022-08-23T00:07:57;3.67;;;1.75;;
54388;SDS011;40975;50.390;8.640;2022-08-23T00:10:22;2.75;;;1.20;;
54388;SDS011;40975;50.390;8.640;2022-08-23T00:12:48;3.15;;;1.85;;
54388;SDS011;40975;50.390;8.640;2022-08-23T00:15:14;5.65;;;1.45;;
54388;SDS011;40975;50.390;8.640;2022-08-23T00:17:41;5.35;;;1.52;;
54388;SDS011;40975;50.390;8.640;2022-08-23T00:20:08;1.77;;;1.45;;
54388;SDS011;40975;50.390;8.640;2022-08-23T00:22:37;1.52;;;1.40;;
54388;SDS011;40975;50.390;8.640;2022-08-23T00:25:05;1.45;;;1.10;;
54388;SDS011;40975;50.390;8.640;2022-08-23T00:27:31;3.17;;;1.20;;
54388;SDS011;40975;50.390;8.640;2022-08-23T00:29:57;2.55;;;1.20;;
54388;SDS011;40975;50.390;8.640;2022-08-23T00:32:25;3.92;;;1.35;;
54388;SDS011;40975;50.390;8.640;2022-08-23T00:34:53;4.78;;;1.27;;
54388;SDS011;40975;50.390;8.640;2022-08-23T00:37:19;1.63;;;1.38;;
54388;SDS011;40975;50.390;8.640;2022-08-23T00:39:45;2.55;;;1.40;;
54388;SDS011;40975;50.390;8.640;2022-08-23T00:42:33;3.67;;;1.73;;
54388;SDS011;40975;50.390;8.640;2022-08-23T00:45:17;2.95;;;1.50;;
54388;SDS011;40975;50.390;8.640;2022-08-23T00:48:05;3.65;;;1.40;;
54388;SDS011;40975;50.390;8.640;2022-08-23T00:55:54;3.67;;;1.58;;
54388;SDS011;40975;50.390;8.640;2022-08-23T00:58:23;2.35;;;1.70;;
54388;SDS011;40975;50.390;8.640;2022-08-23T01:00:50;2.50;;;1.65;;
54388;SDS011;40975;50.390;8.640;2022-08-23T01:03:17;3.65;;;1.90;;
54388;SDS011;40975;50.390;8.640;2022-08-23T01:08:13;2.70;;;1.83;;
54388;SDS011;40975;50.390;8.640;2022-08-23T01:10:41;5.28;;;1.88;;
54388;SDS011;40975;50.390;8.640;2022-08-23T01:13:13;3.40;;;1.50;;
54388;SDS011;40975;50.390;8.640;2022-08-23T01:18:12;2.38;;;1.80;;
54388;SDS011;40975;50.390;8.640;2022-08-23T01:20:41;4.63;;;1.88;;
54388;SDS011;40975;50.390;8.640;2022-08-23T01:26:06;5.47;;;3.20;;
54388;SDS011;40975;50.390;8.640;2022-08-23T01:28:35;5.32;;;1.65;;
54388;SDS011;40975;50.390;8.640;2022-08-23T01:31:01;3.65;;;1.73;;
54388;SDS011;40975;50.390;8.640;2022-08-23T01:33:28;5.38;;;1.75;;
54388;SDS011;40975;50.390;8.640;2022-08-23T01:35:55;4.18;;;1.58;;
54388;SDS011;40975;50.390;8.640;2022-08-23T01:38:22;4.07;;;1.40;;
54388;SDS011;40975;50.390;8.640;2022-08-23T01:40:49;4.22;;;2.47;;
54388;SDS011;40975;50.390;8.640;2022-08-23T01:43:14;2.90;;;1.70;;
54388;SDS011;40975;50.390;8.640;2022-08-23T01:45:44;1.45;;;1.35;;
54388;SDS011;40975;50.390;8.640;2022-08-23T01:48:11;3.28;;;1.63;;
54388;SDS011;40975;50.390;8.640;2022-08-23T01:50:37;2.47;;;1.80;;
54388;SDS011;40975;50.390;8.640;2022-08-23T01:53:03;4.00;;;1.70;;
54388;SDS011;40975;50.390;8.640;2022-08-23T01:55:30;6.93;;;1.95;;
54388;SDS011;40975;50.390;8.640;2022-08-23T01:57:56;2.10;;;1.40;;
54388;SDS011;40975;50.390;8.640;2022-08-23T02:00:25;1.60;;;1.50;;
54388;SDS011;40975;50.390;8.640;2022-08-23T02:02:55;4.00;;;1.60;;
54388;SDS011;40975;50.390;8.640;2022-08-23T02:05:21;4.20;;;1.75;;
54388;SDS011;40975;50.390;8.640;2022-08-23T02:07:46;3.58;;;1.98;;
54388;SDS011;40975;50.390;8.640;2022-08-23T02:10:12;3.03;;;1.70;;
54388;SDS011;40975;50.390;8.640;2022-08-23T02:12:38;6.60;;;3.05;;
54388;SDS011;40975;50.390;8.640;2022-08-23T02:15:10;4.68;;;1.75;;
54388;SDS011;40975;50.390;8.640;2022-08-23T02:17:39;5.43;;;2.20;;
54388;SDS011;40975;50.390;8.640;2022-08-23T02:20:05;3.22;;;1.70;;
54388;SDS011;40975;50.390;8.640;2022-08-23T02:22:33;3.45;;;2.10;;
54388;SDS011;40975;50.390;8.640;2022-08-23T02:24:59;4.82;;;2.22;;
54388;SDS011;40975;50.390;8.640;2022-08-23T02:27:24;3.25;;;1.60;;
54388;SDS011;40975;50.390;8.640;2022-08-23T02:29:50;2.72;;;1.70;;
54388;SDS011;40975;50.390;8.640;2022-08-23T02:32:16;2.88;;;1.58;;
54388;SDS011;40975;50.390;8.640;2022-08-23T02:34:42;5.18;;;1.88;;
54388;SDS011;40975;50.390;8.640;2022-08-23T02:37:09;2.72;;;1.50;;
54388;SDS011;40975;50.390;8.640;2022-08-23T02:39:36;4.75;;;1.77;;
54388;SDS011;40975;50.390;8.640;2022-08-23T02:42:02;2.83;;;1.88;;
54388;SDS011;40975;50.390;8.640;2022-08-23T02:44:30;3.78;;;1.92;;
54388;SDS011;40975;50.390;8.640;2022-08-23T02:46:59;2.58;;;1.27;;
54388;SDS011;40975;50.390;8.640;2022-08-23T02:49:26;3.40;;;1.60;;
54388;SDS011;40975;50.390;8.640;2022-08-23T02:51:53;3.05;;;1.65;;
54388;SDS011;40975;50.390;8.640;2022-08-23T02:54:18;5.45;;;1.73;;
54388;SDS011;40975;50.390;8.640;2022-08-23T02:56:44;3.42;;;1.75;;
54388;SDS011;40975;50.390;8.640;2022-08-23T02:59:09;2.83;;;1.63;;
54388;SDS011;40975;50.390;8.640;2022-08-23T03:01:36;2.50;;;1.60;;
54388;SDS011;40975;50.390;8.640;2022-08-23T03:04:16;3.20;;;2.10;;
54388;SDS011;40975;50.390;8.640;2022-08-23T03:06:42;2.60;;;1.90;;
54388;SDS011;40975;50.390;8.640;2022-08-23T03:09:07;3.75;;;1.73;;
54388;SDS011;40975;50.390;8.640;2022-08-23T03:11:33;2.35;;;1.70;;
54388;SDS011;40975;50.390;8.640;2022-08-23T03:13:59;3.63;;;1.80;;
54388;SDS011;40975;50.390;8.640;2022-08-23T03:16:26;2.25;;;1.85;;
54388;SDS011;40975;50.390;8.640;2022-08-23T03:18:53;3.60;;;2.00;;
54388;SDS011;40975;50.390;8.640;2022-08-23T03:21:19;4.97;;;1.90;;
54388;SDS011;40975;50.390;8.640;2022-08-23T03:23:45;2.45;;;1.83;;
54388;SDS011;40975;50.390;8.640;2022-08-23T03:26:13;4.22;;;1.85;;
54388;SDS011;40975;50.390;8.640;2022-08-23T03:28:41;1.88;;;1.70;;
54388;SDS011;40975;50.390;8.640;2022-08-23T03:31:09;3.97;;;1.70;;
54388;SDS011;40975;50.390;8.640;2022-08-23T03:33:45;3.40;;;1.88;;
54388;SDS011;40975;50.390;8.640;2022-08-23T03:36:10;3.08;;;1.90;;
54388;SDS011;40975;50.390;8.640;2022-08-23T03:38:37;2.22;;;1.83;;
54388;SDS011;40975;50.390;8.640;2022-08-23T03:41:06;2.28;;;2.08;;
54388;SDS011;40975;50.390;8.640;2022-08-23T03:43:32;3.45;;;2.40;;
54388;SDS011;40975;50.390;8.640;2022-08-23T03:45:58;1.80;;;1.70;;
54388;SDS011;40975;50.390;8.640;2022-08-23T03:48:23;2.50;;;2.30;;
54388;SDS011;40975;50.390;8.640;2022-08-23T03:50:49;2.55;;;2.33;;
54388;SDS011;40975;50.390;8.640;2022-08-23T03:53:15;2.75;;;2.10;;
54388;SDS011;40975;50.390;8.640;2022-08-23T03:55:42;2.83;;;1.92;;
54388;SDS011;40975;50.390;8.640;2022-08-23T03:58:12;2.65;;;2.35;;
54388;SDS011;40975;50.390;8.640;2022-08-23T04:00:38;4.43;;;2.42;;
54388;SDS011;40975;50.390;8.640;2022-08-23T04:03:04;3.63;;;1.92;;
54388;SDS011;40975;50.390;8.640;2022-08-23T04:05:35;5.85;;;2.10;;
54388;SDS011;40975;50.390;8.640;2022-08-23T04:08:07;3.22;;;2.10;;
54388;SDS011;40975;50.390;8.640;2022-08-23T04:10:34;2.00;;;1.80;;
54388;SDS011;40975;50.390;8.640;2022-08-23T04:13:00;3.17;;;1.83;;
54388;SDS011;40975;50.390;8.640;2022-08-23T04:15:26;3.47;;;1.95;;
54388;SDS011;40975;50.390;8.640;2022-08-23T04:17:51;3.60;;;2.50;;
54388;SDS011;40975;50.390;8.640;2022-08-23T04:20:17;2.42;;;2.00;;
54388;SDS011;40975;50.390;8.640;2022-08-23T04:22:52;4.38;;;2.50;;
54388;SDS011;40975;50.390;8.640;2022-08-23T04:25:19;2.53;;;2.30;;
54388;SDS011;40975;50.390;8.640;2022-08-23T04:27:46;3.58;;;2.15;;
54388;SDS011;40975;50.390;8.640;2022-08-23T04:30:12;4.30;;;2.22;;
54388;SDS011;40975;50.390;8.640;2022-08-23T04:32:37;3.47;;;2.22;;
54388;SDS011;40975;50.390;8.640;2022-08-23T04:35:04;3.42;;;1.73;;
54388;SDS011;40975;50.390;8.640;2022-08-23T04:37:30;3.25;;;2.50;;
54388;SDS011;40975;50.390;8.640;2022-08-23T04:39:56;6.40;;;2.30;;
54388;SDS011;40975;50.390;8.640;2022-08-23T04:42:41;6.95;;;2.47;;
54388;SDS011;40975;50.390;8.640;2022-08-23T04:45:07;3.45;;;2.20;;
54388;SDS011;40975;50.390;8.640;2022-08-23T04:47:35;4.60;;;2.28;;
54388;SDS011;40975;50.390;8.640;2022-08-23T04:50:05;5.88;;;2.85;;
54388;SDS011;40975;50.390;8.640;2022-08-23T04:52:32;4.47;;;2.60;;
54388;SDS011;40975;50.390;8.640;2022-08-23T04:54:57;3.58;;;2.10;;
54388;SDS011;40975;50.390;8.640;2022-08-23T04:57:38;3.03;;;2.70;;
54388;SDS011;40975;50.390;8.640;2022-08-23T05:00:07;3.92;;;2.65;;
54388;SDS011;40975;50.390;8.640;2022-08-23T05:02:36;4.30;;;3.00;;
54388;SDS011;40975;50.390;8.640;2022-08-23T05:05:03;3.95;;;3.10;;
54388;SDS011;40975;50.390;8.640;2022-08-23T05:07:29;6.22;;;2.88;;
54388;SDS011;40975;50.390;8.640;2022-08-23T05:09:55;3.33;;;2.60;;
54388;SDS011;40975;50.390;8.640;2022-08-23T05:12:21;4.25;;;2.40;;
54388;SDS011;40975;50.390;8.640;2022-08-23T05:14:47;2.85;;;2.55;;
54388;SDS011;40975;50.390;8.640;2022-08-23T05:17:12;6.85;;;2.63;;
54388;SDS011;40975;50.390;8.640;2022-08-23T05:19:38;2.88;;;2.35;;
54388;SDS011;40975;50.390;8.640;2022-08-23T05:22:03;5.93;;;2.60;;
54388;SDS011;40975;50.390;8.640;2022-08-23T05:24:49;2.85;;;2.20;;
54388;SDS011;40975;50.390;8.640;2022-08-23T05:27:14;9.80;;;2.80;;
54388;SDS011;40975;50.390;8.640;2022-08-23T05:29:39;4.45;;;2.60;;
54388;SDS011;40975;50.390;8.640;2022-08-23T05:32:05;3.90;;;2.38;;
54388;SDS011;40975;50.390;8.640;2022-08-23T05:34:31;6.35;;;2.80;;
54388;SDS011;40975;50.390;8.640;2022-08-23T05:36:57;4.88;;;2.53;;
54388;SDS011;40975;50.390;8.640;2022-08-23T05:39:29;3.47;;;2.67;;
54388;SDS011;40975;50.390;8.640;2022-08-23T05:41:55;4.72;;;2.30;;
54388;SDS011;40975;50.390;8.640;2022-08-23T05:44:20;5.40;;;2.20;;
54388;SDS011;40975;50.390;8.640;2022-08-23T05:46:46;4.13;;;2.45;;
54388;SDS011;40975;50.390;8.640;2022-08-23T05:49:21;5.18;;;2.75;;
54388;SDS011;40975;50.390;8.640;2022-08-23T05:51:48;3.65;;;2.35;;
54388;SDS011;40975;50.390;8.640;2022-08-23T05:54:14;8.02;;;2.50;;
54388;SDS011;40975;50.390;8.640;2022-08-23T05:56:40;2.80;;;2.47;;
54388;SDS011;40975;50.390;8.640;2022-08-23T05:59:10;2.83;;;2.30;;
54388;SDS011;40975;50.390;8.640;2022-08-23T06:01:40;2.55;;;2.15;;
54388;SDS011;40975;50.390;8.640;2022-08-23T06:04:11;3.85;;;2.20;;
54388;SDS011;40975;50.390;8.640;2022-08-23T06:06:39;4.50;;;2.35;;
54388;SDS011;40975;50.390;8.640;2022-08-23T06:09:06;3.40;;;2.65;;
54388;SDS011;40975;50.390;8.640;2022-08-23T06:11:35;3.35;;;2.50;;
54388;SDS011;40975;50.390;8.640;2022-08-23T06:14:04;5.25;;;2.13;;
54388;SDS011;40975;50.390;8.640;2022-08-23T06:16:32;3.35;;;1.70;;
54388;SDS011;40975;50.390;8.640;2022-08-23T06:19:01;2.95;;;1.80;;
54388;SDS011;40975;50.390;8.640;2022-08-23T06:21:50;5.30;;;2.10;;
54388;SDS011;40975;50.390;8.640;2022-08-23T06:24:22;2.55;;;2.00;;
54388;SDS011;40975;50.390;8.640;2022-08-23T06:26:52;2.92;;;1.80;;
54388;SDS011;40975;50.390;8.640;2022-08-23T06:29:18;2.88;;;1.60;;
54388;SDS011;40975;50.390;8.640;2022-08-23T06:31:47;5.95;;;1.83;;
54388;SDS011;40975;50.390;8.640;2022-08-23T06:34:29;3.58;;;1.70;;
54388;SDS011;40975;50.390;8.640;2022-08-23T06:37:16;2.83;;;1.73;;
54388;SDS011;40975;50.390;8.640;2022-08-23T06:40:00;4.03;;;1.75;;
54388;SDS011;40975;50.390;8.640;2022-08-23T06:42:43;2.50;;;1.85;;
54388;SDS011;40975;50.390;8.640;2022-08-23T06:45:08;5.68;;;2.05;;
54388;SDS011;40975;50.390;8.640;2022-08-23T06:47:41;4.45;;;1.90;;
54388;SDS011;40975;50.390;8.640;2022-08-23T06:50:07;3.22;;;1.63;;
54388;SDS011;40975;50.390;8.640;2022-08-23T06:53:02;3.28;;;1.80;;
54388;SDS011;40975;50.390;8.640;2022-08-23T06:55:42;1.40;;;1.30;;
54388;SDS011;40975;50.390;8.640;2022-08-23T06:58:15;2.78;;;1.52;;
54388;SDS011;40975;50.390;8.640;2022-08-23T07:01:10;2.65;;;1.65;;
54388;SDS011;40975;50.390;8.640;2022-08-23T07:04:07;3.08;;;1.65;;
54388;SDS011;40975;50.390;8.640;2022-08-23T07:07:02;2.63;;;1.60;;
54388;SDS011;40975;50.390;8.640;2022-08-23T07:09:29;2.97;;;1.55;;
54388;SDS011;40975;50.390;8.640;2022-08-23T07:11:57;4.82;;;1.92;;
54388;SDS011;40975;50.390;8.640;2022-08-23T07:14:23;2.13;;;1.67;;
54388;SDS011;40975;50.390;8.640;2022-08-23T07:16:50;3.38;;;1.70;;
54388;SDS011;40975;50.390;8.640;2022-08-23T07:19:19;2.30;;;1.65;;
54388;SDS011;40975;50.390;8.640;2022-08-23T07:21:46;2.88;;;1.58;;
54388;SDS011;40975;50.390;8.640;2022-08-23T07:24:13;2.22;;;1.45;;
54388;SDS011;40975;50.390;8.640;2022-08-23T07:26:40;2.30;;;1.60;;
54388;SDS011;40975;50.390;8.640;2022-08-23T07:29:08;5.32;;;1.88;;
54388;SDS011;40975;50.390;8.640;2022-08-23T07:31:40;2.10;;;1.70;;
54388;SDS011;40975;50.390;8.640;2022-08-23T07:34:09;2.80;;;1.50;;
54388;SDS011;40975;50.390;8.640;2022-08-23T07:36:38;2.15;;;1.30;;
54388;SDS011;40975;50.390;8.640;2022-08-23T07:39:05;4.78;;;1.65;;
54388;SDS011;40975;50.390;8.640;2022-08-23T07:41:32;2.83;;;1.60;;
54388;SDS011;40975;50.390;8.640;2022-08-23T07:44:00;2.83;;;1.70;;
54388;SDS011;40975;50.390;8.640;2022-08-23T07:46:29;3.95;;;2.28;;
54388;SDS011;40975;50.390;8.640;2022-08-23T07:48:58;2.40;;;1.60;;
54388;SDS011;40975;50.390;8.640;2022-08-23T07:51:31;5.43;;;1.50;;
54388;SDS011;40975;50.390;8.640;2022-08-23T07:53:59;2.50;;;1.58;;
54388;SDS011;40975;50.390;8.640;2022-08-23T07:56:26;3.72;;;1.80;;
54388;SDS011;40975;50.390;8.640;2022-08-23T07:58:59;2.40;;;1.50;;
54388;SDS011;40975;50.390;8.640;2022-08-23T08:01:32;2.20;;;1.50;;
54388;SDS011;40975;50.390;8.640;2022-08-23T08:03:59;3.97;;;1.40;;
54388;SDS011;40975;50.390;8.640;2022-08-23T08:06:33;3.63;;;1.38;;
54388;SDS011;40975;50.390;8.640;2022-08-23T08:09:03;4.40;;;1.50;;
54388;SDS011;40975;50.390;8.640;2022-08-23T08:11:31;3.28;;;1.60;;
54388;SDS011;40975;50.390;8.640;2022-08-23T08:14:00;4.05;;;1.63;;
54388;SDS011;40975;50.390;8.640;2022-08-23T08:16:29;2.90;;;1.30;;
54388;SDS011;40975;50.390;8.640;2022-08-23T08:19:00;2.45;;;1.48;;
54388;SDS011;40975;50.390;8.640;2022-08-23T08:24:47;2.67;;;1.48;;
54388;SDS011;40975;50.390;8.640;2022-08-23T08:27:13;1.90;;;1.50;;
54388;SDS011;40975;50.390;8.640;2022-08-23T08:29:39;2.42;;;1.30;;
54388;SDS011;40975;50.390;8.640;2022-08-23T08:32:06;4.47;;;1.55;;
54388;SDS011;40975;50.390;8.640;2022-08-23T08:34:33;1.95;;;1.50;;
54388;SDS011;40975;50.390;8.640;2022-08-23T08:36:59;1.55;;;1.42;;
54388;SDS011;40975;50.390;8.640;2022-08-23T08:39:26;2.85;;;1.45;;
54388;SDS011;40975;50.390;8.640;2022-08-23T08:42:03;4.88;;;1.40;;
54388;SDS011;40975;50.390;8.640;2022-08-23T08:45:05;6.22;;;1.67;;
54388;SDS011;40975;50.390;8.640;2022-08-23T08:47:55;2.55;;;1.42;;
54388;SDS011;40975;50.390;8.640;2022-08-23T08:53:00;3.78;;;1.67;;
54388;SDS011;40975;50.390;8.640;2022-08-23T08:56:17;4.15;;;1.65;;
54388;SDS011;40975;50.390;8.640;2022-08-23T08:58:50;1.52;;;1.42;;
54388;SDS011;40975;50.390;8.640;2022-08-23T09:03:44;2.13;;;1.40;;
54388;SDS011;40975;50.390;8.640;2022-08-23T09:14:41;2.10;;;1.52;;
54388;SDS011;40975;50.390;8.640;2022-08-23T09:17:14;1.50;;;1.40;;
54388;SDS011;40975;50.390;8.640;2022-08-23T09:19:51;2.10;;;1.30;;
54388;SDS011;40975;50.390;8.640;2022-08-23T09:22:26;3.78;;;1.70;;
54388;SDS011;40975;50.390;8.640;2022-08-23T09:24:59;2.72;;;1.35;;
54388;SDS011;40975;50.390;8.640;2022-08-23T09:27:31;3.15;;;1.50;;
54388;SDS011;40975;50.390;8.640;2022-08-23T09:29:58;2.70;;;1.88;;
54388;SDS011;40975;50.390;8.640;2022-08-23T09:32:31;2.07;;;1.67;;
54388;SDS011;40975;50.390;8.640;2022-08-23T09:35:16;4.78;;;1.65;;
54388;SDS011;40975;50.390;8.640;2022-08-23T09:40:24;4.28;;;1.50;;
54388;SDS011;40975;50.390;8.640;2022-08-23T09:43:14;3.35;;;1.73;;
54388;SDS011;40975;50.390;8.640;2022-08-23T09:45:51;2.22;;;1.75;;
54388;SDS011;40975;50.390;8.640;2022-08-23T09:51:14;1.70;;;1.60;;
54388;SDS011;40975;50.390;8.640;2022-08-23T09:53:45;7.90;;;2.17;;
54388;SDS011;40975;50.390;8.640;2022-08-23T09:56:21;3.95;;;1.55;;
54388;SDS011;40975;50.390;8.640;2022-08-23T09:58:49;2.83;;;1.63;;
54388;SDS011;40975;50.390;8.640;2022-08-23T10:01:32;1.30;;;1.20;;
54388;SDS011;40975;50.390;8.640;2022-08-23T10:04:15;2.35;;;1.90;;
54388;SDS011;40975;50.390;8.640;2022-08-23T10:09:45;5.53;;;1.65;;
54388;SDS011;40975;50.390;8.640;2022-08-23T10:12:11;3.97;;;1.90;;
54388;SDS011;40975;50.390;8.640;2022-08-23T10:14:37;3.05;;;2.00;;
54388;SDS011;40975;50.390;8.640;2022-08-23T10:22:41;2.53;;;1.52;;
54388;SDS011;40975;50.390;8.640;2022-08-23T10:25:23;2.90;;;1.58;;
54388;SDS011;40975;50.390;8.640;2022-08-23T10:28:11;3.05;;;1.40;;
54388;SDS011;40975;50.390;8.640;2022-08-23T10:31:10;2.92;;;1.60;;
54388;SDS011;40975;50.390;8.640;2022-08-23T10:36:30;4.22;;;1.90;;
54388;SDS011;40975;50.390;8.640;2022-08-23T10:39:06;2.28;;;1.58;;
54388;SDS011;40975;50.390;8.640;2022-08-23T10:49:55;1.73;;;1.60;;
54388;SDS011;40975;50.390;8.640;2022-08-23T10:52:30;3.08;;;2.08;;
54388;SDS011;40975;50.390;8.640;2022-08-23T10:55:03;3.17;;;1.80;;
54388;SDS011;40975;50.390;8.640;2022-08-23T10:57:43;3.58;;;2.00;;
54388;SDS011;40975;50.390;8.640;2022-08-23T11:00:21;2.60;;;1.70;;
54388;SDS011;40975;50.390;8.640;2022-08-23T11:02:58;4.60;;;2.08;;
54388;SDS011;40975;50.390;8.640;2022-08-23T11:05:38;3.45;;;2.08;;
54388;SDS011;40975;50.390;8.640;2022-08-23T11:08:30;6.40;;;1.98;;
54388;SDS011;40975;50.390;8.640;2022-08-23T11:11:00;2.65;;;1.98;;
54388;SDS011;40975;50.390;8.640;2022-08-23T11:13:31;2.67;;;2.10;;
54388;SDS011;40975;50.390;8.640;2022-08-23T11:16:12;3.70;;;2.00;;
54388;SDS011;40975;50.390;8.640;2022-08-23T11:18:43;1.95;;;1.73;;
54388;SDS011;40975;50.390;8.640;2022-08-23T11:23:50;2.65;;;1.95;;
54388;SDS011;40975;50.390;8.640;2022-08-23T11:28:52;3.17;;;2.10;;
54388;SDS011;40975;50.390;8.640;2022-08-23T11:31:25;2.97;;;2.20;;
54388;SDS011;40975;50.390;8.640;2022-08-23T11:34:13;2.45;;;1.80;;
54388;SDS011;40975;50.390;8.640;2022-08-23T11:42:22;3.42;;;2.03;;
54388;SDS011;40975;50.390;8.640;2022-08-23T11:44:50;3.60;;;2.75;;
54388;SDS011;40975;50.390;8.640;2022-08-23T11:47:28;5.18;;;2.33;;
54388;SDS011;40975;50.390;8.640;2022-08-23T11:50:14;4.40;;;2.20;;
54388;SDS011;40975;50.390;8.640;2022-08-23T11:53:10;2.83;;;2.40;;
54388;SDS011;40975;50.390;8.640;2022-08-23T12:01:41;2.97;;;1.80;;
54388;SDS011;40975;50.390;8.640;2022-08-23T12:04:10;3.65;;;2.00;;
54388;SDS011;40975;50.390;8.640;2022-08-23T12:06:54;2.63;;;2.10;;
54388;SDS011;40975;50.390;8.640;2022-08-23T12:16:59;3.80;;;1.75;;
54388;SDS011;40975;50.390;8.640;2022-08-23T12:19:29;6.53;;;1.90;;
54388;SDS011;40975;50.390;8.640;2022-08-23T12:22:04;3.58;;;1.95;;
54388;SDS011;40975;50.390;8.640;2022-08-23T12:24:55;5.20;;;2.08;;
54388;SDS011;40975;50.390;8.640;2022-08-23T12:27:32;3.80;;;2.05;;
54388;SDS011;40975;50.390;8.640;2022-08-23T12:38:15;1.75;;;1.65;;
54388;SDS011;40975;50.390;8.640;2022-08-23T12:40:45;2.55;;;2.00;;
54388;SDS011;40975;50.390;8.640;2022-08-23T12:45:39;4.15;;;2.15;;
54388;SDS011;40975;50.390;8.640;2022-08-23T12:48:07;3.13;;;2.05;;
54388;SDS011;40975;50.390;8.640;2022-08-23T12:50:36;2.08;;;1.92;;
54388;SDS011;40975;50.390;8.640;2022-08-23T12:53:07;2.58;;;2.10;;
54388;SDS011;40975;50.390;8.640;2022-08-23T12:55:44;2.63;;;1.95;;
54388;SDS011;40975;50.390;8.640;2022-08-23T12:58:14;3.25;;;2.28;;
54388;SDS011;40975;50.390;8.640;2022-08-23T13:00:54;2.97;;;1.83;;
54388;SDS011;40975;50.390;8.640;2022-08-23T13:03:23;3.95;;;1.85;;
54388;SDS011;40975;50.390;8.640;2022-08-23T13:05:52;4.75;;;2.38;;
54388;SDS011;40975;50.390;8.640;2022-08-23T13:08:33;3.47;;;2.28;;
54388;SDS011;40975;50.390;8.640;2022-08-23T13:11:17;2.45;;;1.85;;
54388;SDS011;40975;50.390;8.640;2022-08-23T13:18:54;4.00;;;2.20;;
54388;SDS011;40975;50.390;8.640;2022-08-23T13:21:25;4.13;;;2.17;;
54388;SDS011;40975;50.390;8.640;2022-08-23T13:23:54;2.67;;;2.05;;
54388;SDS011;40975;50.390;8.640;2022-08-23T13:26:36;2.30;;;2.08;;
54388;SDS011;40975;50.390;8.640;2022-08-23T13:34:29;4.88;;;2.08;;
54388;SDS011;40975;50.390;8.640;2022-08-23T13:36:58;3.83;;;1.90;;
54388;SDS011;40975;50.390;8.640;2022-08-23T13:39:42;4.70;;;2.38;;
54388;SDS011;40975;50.390;8.640;2022-08-23T13:42:10;2.30;;;1.80;;
54388;SDS011;40975;50.390;8.640;2022-08-23T13:44:36;4.63;;;1.80;;
54388;SDS011;40975;50.390;8.640;2022-08-23T13:47:01;3.05;;;2.10;;
54388;SDS011;40975;50.390;8.640;2022-08-23T13:49:27;3.70;;;2.15;;
54388;SDS011;40975;50.390;8.640;2022-08-23T13:54:24;6.30;;;2.10;;
54388;SDS011;40975;50.390;8.640;2022-08-23T13:59:48;4.82;;;2.10;;
54388;SDS011;40975;50.390;8.640;2022-08-23T14:02:15;8.40;;;2.50;;
54388;SDS011;40975;50.390;8.640;2022-08-23T14:04:42;3.97;;;2.28;;
54388;SDS011;40975;50.390;8.640;2022-08-23T14:07:08;3.08;;;2.08;;
54388;SDS011;40975;50.390;8.640;2022-08-23T14:09:35;3.90;;;2.05;;
54388;SDS011;40975;50.390;8.640;2022-08-23T14:12:03;3.22;;;2.00;;
54388;SDS011;40975;50.390;8.640;2022-08-23T14:14:32;2.90;;;1.97;;
54388;SDS011;40975;50.390;8.640;2022-08-23T14:16:58;4.97;;;2.13;;
54388;SDS011;40975;50.390;8.640;2022-08-23T14:19:24;4.25;;;2.20;;
54388;SDS011;40975;50.390;8.640;2022-08-23T14:21:49;5.60;;;2.10;;
54388;SDS011;40975;50.390;8.640;2022-08-23T14:24:15;2.45;;;1.98;;
54388;SDS011;40975;50.390;8.640;2022-08-23T14:26:40;2.13;;;1.90;;
54388;SDS011;40975;50.390;8.640;2022-08-23T14:29:06;4.32;;;1.88;;
54388;SDS011;40975;50.390;8.640;2022-08-23T14:31:33;3.85;;;2.08;;
54388;SDS011;40975;50.390;8.640;2022-08-23T14:33:58;2.58;;;2.10;;
54388;SDS011;40975;50.390;8.640;2022-08-23T14:36:23;3.30;;;1.90;;
54388;SDS011;40975;50.390;8.640;2022-08-23T14:38:49;3.38;;;1.85;;
54388;SDS011;40975;50.390;8.640;2022-08-23T14:41:19;4.20;;;2.15;;
54388;SDS011;40975;50.390;8.640;2022-08-23T14:43:47;3.05;;;1.77;;
54388;SDS011;40975;50.390;8.640;2022-08-23T14:46:13;2.97;;;2.17;;
54388;SDS011;40975;50.390;8.640;2022-08-23T14:48:39;4.43;;;2.00;;
54388;SDS011;40975;50.390;8.640;2022-08-23T14:51:04;2.55;;;1.77;;
54388;SDS011;40975;50.390;8.640;2022-08-23T14:53:30;4.15;;;2.25;;
54388;SDS011;40975;50.390;8.640;2022-08-23T14:56:00;3.72;;;1.92;;
54388;SDS011;40975;50.390;8.640;2022-08-23T14:58:25;3.72;;;2.10;;
54388;SDS011;40975;50.390;8.640;2022-08-23T15:00:51;5.90;;;2.13;;
54388;SDS011;40975;50.390;8.640;2022-08-23T15:03:22;3.17;;;2.20;;
54388;SDS011;40975;50.390;8.640;2022-08-23T15:05:49;4.40;;;2.00;;
54388;SDS011;40975;50.390;8.640;2022-08-23T15:08:15;2.70;;;1.80;;
54388;SDS011;40975;50.390;8.640;2022-08-23T15:10:41;2.47;;;1.88;;
54388;SDS011;40975;50.390;8.640;2022-08-23T15:13:06;3.53;;;2.00;;
54388;SDS011;40975;50.390;8.640;2022-08-23T15:15:32;1.83;;;1.67;;
54388;SDS011;40975;50.390;8.640;2022-08-23T15:17:59;3.83;;;1.80;;
54388;SDS011;40975;50.390;8.640;2022-08-23T15:20:31;4.18;;;2.10;;
54388;SDS011;40975;50.390;8.640;2022-08-23T15:23:00;2.83;;;1.90;;
54388;SDS011;40975;50.390;8.640;2022-08-23T15:25:29;2.10;;;1.90;;
54388;SDS011;40975;50.390;8.640;2022-08-23T15:27:57;2.88;;;2.03;;
54388;SDS011;40975;50.390;8.640;2022-08-23T15:30:24;4.13;;;2.00;;
54388;SDS011;40975;50.390;8.640;2022-08-23T15:32:49;4.28;;;2.05;;
54388;SDS011;40975;50.390;8.640;2022-08-23T15:35:15;3.45;;;2.00;;
54388;SDS011;40975;50.390;8.640;2022-08-23T15:37:40;3.67;;;1.90;;
54388;SDS011;40975;50.390;8.640;2022-08-23T15:40:06;4.97;;;2.00;;
54388;SDS011;40975;50.390;8.640;2022-08-23T15:42:33;2.40;;;1.90;;
54388;SDS011;40975;50.390;8.640;2022-08-23T15:44:59;6.00;;;2.00;;
54388;SDS011;40975;50.390;8.640;2022-08-23T15:47:25;4.82;;;1.77;;
54388;SDS011;40975;50.390;8.640;2022-08-23T15:49:53;4.30;;;1.95;;
54388;SDS011;40975;50.390;8.640;2022-08-23T15:52:19;3.33;;;1.73;;
54388;SDS011;40975;50.390;8.640;2022-08-23T15:54:45;2.75;;;1.80;;
54388;SDS011;40975;50.390;8.640;2022-08-23T15:57:13;3.05;;;1.77;;
54388;SDS011;40975;50.390;8.640;2022-08-23T15:59:40;2.78;;;2.08;;
54388;SDS011;40975;50.390;8.640;2022-08-23T16:02:06;3.90;;;2.67;;
54388;SDS011;40975;50.390;8.640;2022-08-23T16:04:31;7.10;;;3.33;;
54388;SDS011;40975;50.390;8.640;2022-08-23T16:06:57;5.22;;;3.42;;
54388;SDS011;40975;50.390;8.640;2022-08-23T16:09:23;5.05;;;2.45;;
54388;SDS011;40975;50.390;8.640;2022-08-23T16:11:49;4.20;;;2.15;;
54388;SDS011;40975;50.390;8.640;2022-08-23T16:14:15;1.95;;;1.75;;
54388;SDS011;40975;50.390;8.640;2022-08-23T16:16:41;2.63;;;1.80;;
54388;SDS011;40975;50.390;8.640;2022-08-23T16:19:10;2.45;;;1.90;;
54388;SDS011;40975;50.390;8.640;2022-08-23T16:21:36;3.83;;;3.17;;
54388;SDS011;40975;50.390;8.640;2022-08-23T16:24:02;2.53;;;1.98;;
54388;SDS011;40975;50.390;8.640;2022-08-23T16:26:29;2.50;;;1.90;;
54388;SDS011;40975;50.390;8.640;2022-08-23T16:28:57;2.97;;;2.13;;
54388;SDS011;40975;50.390;8.640;2022-08-23T16:31:23;4.85;;;1.70;;
54388;SDS011;40975;50.390;8.640;2022-08-23T16:33:56;3.37;;;1.80;;
54388;SDS011;40975;50.390;8.640;2022-08-23T16:36:25;4.30;;;1.90;;
54388;SDS011;40975;50.390;8.640;2022-08-23T16:38:51;2.63;;;1.65;;
54388;SDS011;40975;50.390;8.640;2022-08-23T16:41:19;2.00;;;1.80;;
54388;SDS011;40975;50.390;8.640;2022-08-23T16:43:44;2.55;;;1.80;;
54388;SDS011;40975;50.390;8.640;2022-08-23T16:46:10;2.22;;;1.73;;
54388;SDS011;40975;50.390;8.640;2022-08-23T16:48:35;3.13;;;2.00;;
54388;SDS011;40975;50.390;8.640;2022-08-23T16:51:01;2.58;;;1.88;;